createdAt,value
2023-03-18T00:03:05.722Z,15.00
2023-03-18T00:07:09.805Z,12.60
2023-03-18T00:11:13.852Z,13.40
2023-03-18T00:15:12.782Z,14.10
2023-03-18T00:19:16.789Z,14.90
2023-03-18T00:23:16.019Z,14.10
2023-03-18T00:27:20.131Z,13.90
2023-03-18T00:31:24.201Z,14.70
2023-03-18T00:35:20.870Z,15.70
2023-03-18T00:39:18.771Z,14.30
2023-03-18T00:43:22.842Z,13.40
2023-03-18T00:47:20.397Z,14.00
2023-03-18T00:51:24.391Z,14.30
2023-03-18T00:55:20.669Z,15.10
2023-03-18T00:59:25.387Z,14.20
2023-03-18T01:03:29.371Z,15.60
2023-03-18T01:07:33.516Z,14.40
2023-03-18T01:11:37.456Z,15.50
2023-03-18T01:15:42.265Z,14.70
2023-03-18T01:19:46.274Z,13.20
2023-03-18T01:23:50.390Z,13.90
2023-03-18T01:27:45.678Z,14.70
2023-03-18T01:31:49.552Z,14.10
2023-03-18T01:35:53.674Z,15.50
2023-03-18T01:39:57.710Z,13.70
2023-03-18T01:44:16.568Z,14.30
2023-03-18T01:48:13.347Z,13.80
2023-03-18T01:52:09.221Z,14.40
2023-03-18T01:56:13.283Z,14.60
2023-03-18T02:00:17.409Z,15.70
2023-03-18T02:03:22.366Z,13.90
2023-03-18T02:06:06.071Z,16.80
2023-03-18T02:08:49.817Z,15.20
2023-03-18T02:11:38.294Z,14.60
2023-03-18T02:14:26.924Z,15.60
2023-03-18T02:17:15.454Z,15.60
2023-03-18T02:20:02.155Z,15.10
2023-03-18T02:22:52.243Z,15.20
2023-03-18T02:25:57.444Z,15.80
2023-03-18T02:28:42.803Z,16.40
2023-03-18T02:31:27.357Z,14.90
2023-03-18T02:34:11.918Z,16.70
2023-03-18T02:36:55.678Z,16.40
2023-03-18T02:39:39.100Z,15.50
2023-03-18T02:42:30.633Z,15.60
2023-03-18T02:45:26.692Z,15.50
2023-03-18T02:48:36.764Z,15.00
2023-03-18T02:51:21.218Z,15.30
2023-03-18T02:54:10.251Z,16.80
2023-03-18T02:56:54.292Z,15.90
2023-03-18T02:59:37.511Z,15.20
2023-03-18T03:02:21.291Z,15.70
2023-03-18T03:05:04.810Z,14.70
2023-03-18T03:07:47.872Z,16.00
2023-03-18T03:10:31.643Z,15.20
2023-03-18T03:13:15.791Z,15.80
2023-03-18T03:15:58.979Z,14.60
2023-03-18T03:18:44.173Z,14.20
2023-03-18T03:21:27.906Z,15.00
2023-03-18T03:24:11.039Z,15.50
2023-03-18T03:26:55.804Z,15.10
2023-03-18T03:29:39.250Z,15.50
2023-03-18T03:32:23.303Z,14.20
2023-03-18T03:35:08.789Z,14.60
2023-03-18T03:37:52.625Z,14.10
2023-03-18T03:40:36.649Z,14.50
2023-03-18T03:43:20.561Z,14.40
2023-03-18T03:46:04.107Z,14.60
2023-03-18T03:48:48.223Z,14.70
2023-03-18T03:51:32.688Z,13.20
2023-03-18T03:54:16.907Z,13.80
2023-03-18T03:57:00.947Z,14.80
2023-03-18T03:59:44.266Z,13.60
2023-03-18T04:02:33.814Z,13.70
2023-03-18T04:05:19.560Z,12.90
2023-03-18T04:08:02.922Z,13.20
2023-03-18T04:10:50.736Z,13.40
2023-03-18T04:16:17.335Z,13.60
2023-03-18T04:19:00.350Z,14.10
2023-03-18T04:21:43.449Z,14.60
2023-03-18T04:24:26.452Z,13.60
2023-03-18T04:27:09.579Z,13.30
2023-03-18T04:29:52.802Z,15.00
2023-03-18T04:32:37.090Z,13.30
2023-03-18T04:35:21.288Z,14.20
2023-03-18T04:38:05.754Z,14.10
2023-03-18T04:40:48.994Z,14.60
2023-03-18T04:43:32.590Z,13.90
2023-03-18T04:46:15.980Z,14.20
2023-03-18T04:49:00.145Z,14.40
2023-03-18T04:51:43.878Z,13.90
2023-03-18T04:54:34.384Z,14.20
2023-03-18T04:57:19.859Z,14.90
2023-03-18T05:00:11.639Z,15.00
2023-03-18T05:02:55.404Z,13.20
2023-03-18T05:05:39.409Z,13.60
2023-03-18T05:08:23.713Z,14.40
2023-03-18T05:11:07.322Z,14.50
2023-03-18T05:13:52.297Z,15.80
2023-03-18T05:16:37.122Z,13.90
2023-03-18T05:19:20.819Z,13.40
2023-03-18T05:22:11.731Z,14.00
2023-03-18T05:24:55.938Z,13.00
2023-03-18T05:27:40.787Z,12.80
2023-03-18T05:30:32.184Z,13.20
2023-03-18T05:33:15.985Z,14.30
2023-03-18T05:36:05.188Z,13.70
2023-03-18T05:38:51.873Z,12.50
2023-03-18T05:41:35.139Z,13.40
2023-03-18T05:44:19.679Z,13.20
2023-03-18T05:47:04.939Z,12.50
2023-03-18T05:49:58.477Z,13.40
2023-03-18T05:52:43.157Z,12.80
2023-03-18T05:55:33.938Z,12.80
2023-03-18T05:58:17.045Z,14.20
2023-03-18T06:01:00.859Z,13.50
2023-03-18T06:03:43.998Z,13.40
2023-03-18T06:06:27.660Z,12.80
2023-03-18T06:09:12.722Z,12.70
2023-03-18T06:11:58.703Z,12.90
2023-03-18T06:14:41.657Z,12.90
2023-03-18T06:17:24.739Z,13.00
2023-03-18T06:20:09.601Z,12.50
2023-03-18T06:22:52.700Z,13.10
2023-03-18T06:25:36.661Z,13.10
2023-03-18T06:28:19.629Z,13.30
2023-03-18T06:31:04.176Z,14.50
2023-03-18T06:33:47.420Z,12.90
2023-03-18T06:36:31.995Z,13.20
2023-03-18T06:39:15.009Z,12.90
2023-03-18T06:41:59.449Z,13.40
2023-03-18T06:44:50.767Z,12.10
2023-03-18T06:47:40.110Z,12.30
2023-03-18T06:50:24.401Z,12.70
2023-03-18T06:53:08.271Z,13.70
2023-03-18T06:55:51.412Z,13.90
2023-03-18T06:58:36.801Z,13.90
2023-03-18T07:01:23.115Z,13.00
2023-03-18T07:04:07.165Z,13.70
2023-03-18T07:06:51.542Z,13.90
2023-03-18T07:09:34.593Z,15.30
2023-03-18T07:12:17.769Z,14.90
2023-03-18T07:15:01.360Z,15.10
2023-03-18T07:17:45.171Z,15.60
2023-03-18T07:20:29.916Z,13.00
2023-03-18T07:23:13.190Z,14.50
2023-03-18T07:25:56.221Z,12.90
2023-03-18T07:28:39.296Z,11.50
2023-03-18T07:31:23.174Z,13.10
2023-03-18T07:34:06.479Z,11.30
2023-03-18T07:36:49.977Z,10.80
2023-03-18T07:39:33.697Z,10.20
2023-03-18T07:42:16.718Z,10.60
2023-03-18T07:45:02.154Z,10.00
2023-03-18T07:47:47.228Z,10.20
2023-03-18T07:50:30.611Z,9.80
2023-03-18T07:53:16.591Z,9.70
2023-03-18T07:56:00.869Z,9.70
2023-03-18T07:58:43.878Z,10.20
2023-03-18T08:01:27.778Z,9.80
2023-03-18T08:04:10.855Z,9.90
2023-03-18T08:06:55.244Z,9.20
2023-03-18T08:09:38.574Z,8.50
2023-03-18T08:12:21.986Z,8.60
2023-03-18T08:15:05.505Z,8.40
2023-03-18T08:17:48.751Z,8.00
2023-03-18T08:20:31.989Z,7.60
2023-03-18T08:23:14.925Z,7.60
2023-03-18T08:25:57.979Z,8.10
2023-03-18T08:28:41.926Z,8.40
2023-03-18T08:31:24.940Z,8.60
2023-03-18T08:34:08.808Z,9.20
2023-03-18T08:36:52.258Z,8.50
2023-03-18T08:39:35.545Z,8.70
2023-03-18T08:42:19.297Z,7.50
2023-03-18T08:45:04.857Z,7.60
2023-03-18T08:47:47.910Z,7.40
2023-03-18T08:50:30.958Z,7.60
2023-03-18T08:53:14.128Z,8.00
2023-03-18T08:55:57.462Z,8.60
2023-03-18T08:58:40.795Z,7.90
2023-03-18T09:01:24.378Z,7.30
2023-03-18T09:04:07.435Z,7.40
2023-03-18T09:06:50.333Z,7.60
2023-03-18T09:09:43.207Z,7.60
2023-03-18T09:12:27.339Z,7.40
2023-03-18T09:15:15.172Z,9.10
2023-03-18T09:18:10.980Z,7.00
2023-03-18T09:20:57.479Z,6.90
2023-03-18T09:23:46.993Z,7.50
2023-03-18T09:26:29.956Z,7.70
2023-03-18T09:29:12.947Z,7.30
2023-03-18T09:31:56.355Z,7.30
2023-03-18T09:34:39.345Z,7.20
2023-03-18T09:37:22.936Z,7.10
2023-03-18T09:40:07.873Z,7.00
2023-03-18T09:43:17.526Z,6.70
2023-03-18T09:46:09.777Z,6.00
2023-03-18T09:49:21.304Z,7.00
2023-03-18T09:52:29.373Z,6.40
2023-03-18T09:55:16.164Z,7.90
2023-03-18T09:58:08.306Z,6.70
2023-03-18T10:01:00.554Z,6.70
2023-03-18T10:04:08.137Z,6.80
2023-03-18T10:07:00.152Z,7.10
2023-03-18T10:09:46.442Z,7.50
2023-03-18T10:13:01.369Z,7.70
2023-03-18T10:15:49.229Z,6.50
2023-03-18T10:18:38.257Z,6.30
2023-03-18T10:21:37.364Z,7.40
2023-03-18T10:24:55.427Z,7.60
2023-03-18T10:28:00.158Z,7.10
2023-03-18T10:30:50.858Z,7.70
2023-03-18T10:34:01.423Z,7.60
2023-03-18T10:37:04.195Z,7.40
2023-03-18T10:39:49.552Z,6.70
2023-03-18T10:42:33.397Z,7.20
2023-03-18T10:45:24.896Z,7.40
2023-03-18T10:48:28.981Z,7.80
2023-03-18T10:51:33.382Z,7.70
2023-03-18T10:54:46.202Z,8.00
2023-03-18T10:57:29.905Z,9.20
2023-03-18T11:00:33.267Z,7.60
2023-03-18T11:03:24.194Z,7.20
2023-03-18T11:06:16.450Z,7.00
2023-03-18T11:09:09.087Z,7.90
2023-03-18T11:11:57.925Z,8.40
2023-03-18T11:14:42.398Z,7.70
2023-03-18T11:17:31.971Z,7.90
2023-03-18T11:20:45.741Z,8.90
2023-03-18T11:23:46.340Z,9.70
2023-03-18T11:26:30.536Z,8.90
2023-03-18T11:29:18.741Z,7.90
2023-03-18T11:32:02.577Z,8.40
2023-03-18T11:34:56.454Z,7.80
2023-03-18T11:37:41.570Z,8.40
2023-03-18T11:40:28.330Z,7.80
2023-03-18T11:43:29.642Z,7.40
2023-03-18T11:46:13.650Z,8.60
2023-03-18T11:48:58.438Z,8.10
2023-03-18T11:52:15.222Z,8.20
2023-03-18T11:55:10.869Z,8.10
2023-03-18T11:58:31.750Z,9.00
2023-03-18T12:01:24.164Z,8.60
2023-03-18T12:04:42.653Z,8.20
2023-03-18T12:07:47.466Z,8.30
2023-03-18T12:10:36.940Z,9.60
2023-03-18T12:13:29.866Z,9.80
2023-03-18T12:16:12.830Z,9.10
2023-03-18T12:19:02.209Z,8.80
2023-03-18T12:22:06.673Z,8.20
2023-03-18T12:25:15.718Z,7.70
2023-03-18T12:28:01.678Z,7.60
2023-03-18T12:30:59.940Z,7.60
2023-03-18T12:34:01.629Z,8.10
2023-03-18T12:37:03.532Z,9.50
2023-03-18T12:40:25.756Z,7.50
2023-03-18T12:43:29.950Z,8.10
2023-03-18T12:46:36.130Z,8.80
2023-03-18T12:49:20.036Z,9.20
2023-03-18T12:52:09.581Z,8.50
2023-03-18T12:55:07.686Z,8.20
2023-03-18T12:58:19.733Z,8.80
2023-03-18T13:01:23.956Z,7.80
2023-03-18T13:04:14.220Z,7.50
2023-03-18T13:07:16.022Z,8.10
2023-03-18T13:10:21.910Z,8.50
2023-03-18T13:13:09.650Z,8.40
2023-03-18T13:15:54.083Z,7.00
2023-03-18T13:18:44.597Z,7.10
2023-03-18T13:21:33.989Z,8.70
2023-03-18T13:24:46.709Z,8.00
2023-03-18T13:27:59.428Z,7.20
2023-03-18T13:30:45.383Z,7.50
2023-03-18T13:34:01.074Z,6.70
2023-03-18T13:36:53.072Z,7.10
2023-03-18T13:39:39.190Z,8.00
2023-03-18T13:42:38.238Z,7.30
2023-03-18T13:45:31.637Z,7.90
2023-03-18T13:48:18.800Z,7.30
2023-03-18T13:51:25.407Z,8.30
2023-03-18T13:54:18.637Z,7.70
2023-03-18T13:57:29.594Z,8.10
2023-03-18T14:00:33.455Z,8.10
2023-03-18T14:03:31.728Z,7.40
2023-03-18T14:06:37.017Z,9.00
2023-03-18T14:09:25.924Z,8.10
2023-03-18T14:12:31.129Z,8.20
2023-03-18T14:15:40.175Z,8.00
2023-03-18T14:18:28.232Z,7.70
2023-03-18T14:21:29.724Z,7.10
2023-03-18T14:24:16.228Z,7.80
2023-03-18T14:27:05.064Z,8.00
2023-03-18T14:29:51.252Z,7.50
2023-03-18T14:32:36.980Z,7.20
2023-03-18T14:35:33.761Z,8.40
2023-03-18T14:38:22.345Z,6.80
2023-03-18T14:41:19.849Z,7.60
2023-03-18T14:44:17.507Z,6.90
2023-03-18T14:47:05.158Z,7.50
2023-03-18T14:49:54.996Z,7.10
2023-03-18T14:52:41.485Z,7.80
2023-03-18T14:55:31.366Z,7.30
2023-03-18T14:58:19.859Z,7.00
2023-03-18T15:01:11.079Z,7.50
2023-03-18T15:03:57.675Z,7.90
2023-03-18T15:06:41.966Z,7.10
2023-03-18T15:09:33.161Z,7.00
2023-03-18T15:12:18.502Z,8.40
2023-03-18T15:15:01.703Z,6.70
2023-03-18T15:17:49.312Z,7.40
2023-03-18T15:20:36.349Z,7.60
2023-03-18T15:23:27.146Z,7.00
2023-03-18T15:26:35.309Z,8.00
2023-03-18T15:29:33.228Z,8.90
2023-03-18T15:32:26.618Z,8.60
2023-03-18T15:35:18.257Z,9.30
2023-03-18T15:38:07.090Z,8.40
2023-03-18T15:40:52.744Z,8.40
2023-03-18T15:43:48.001Z,9.30
2023-03-18T15:46:32.462Z,8.60
2023-03-18T15:49:16.552Z,9.30
2023-03-18T15:52:02.120Z,9.10
2023-03-18T15:54:48.611Z,9.20
2023-03-18T15:57:40.237Z,9.60
2023-03-18T16:00:23.596Z,9.10
2023-03-18T16:03:18.878Z,9.10
2023-03-18T16:06:05.516Z,9.70
2023-03-18T16:08:50.103Z,9.10
2023-03-18T16:11:33.877Z,8.30
2023-03-18T16:14:23.957Z,9.30
2023-03-18T16:17:07.208Z,9.40
2023-03-18T16:19:57.803Z,10.90
2023-03-18T16:22:41.057Z,11.70
2023-03-18T16:25:24.994Z,10.90
2023-03-18T16:28:17.688Z,11.00
2023-03-18T16:31:01.131Z,11.50
2023-03-18T16:33:46.443Z,11.00
2023-03-18T16:36:35.162Z,12.30
2023-03-18T16:39:21.213Z,11.90
2023-03-18T16:42:06.292Z,14.90
2023-03-18T16:44:49.723Z,17.80
2023-03-18T16:47:33.643Z,21.30
2023-03-18T16:50:21.106Z,19.40
2023-03-18T16:53:22.549Z,19.60
2023-03-18T16:56:20.779Z,20.50
2023-03-18T16:59:11.473Z,21.40
2023-03-18T17:01:54.738Z,21.90
2023-03-18T17:04:38.164Z,20.40
2023-03-18T17:07:21.216Z,20.00
2023-03-18T17:10:04.566Z,19.80
2023-03-18T17:12:59.901Z,19.90
2023-03-18T17:15:44.959Z,19.80
2023-03-18T17:18:28.362Z,21.30
2023-03-18T17:21:12.628Z,20.20
2023-03-18T17:23:58.379Z,21.20
2023-03-18T17:26:41.439Z,21.80
2023-03-18T17:29:30.408Z,22.40
2023-03-18T17:32:16.797Z,23.30
2023-03-18T17:34:59.891Z,26.70
2023-03-18T17:37:43.733Z,25.00
2023-03-18T17:40:30.403Z,25.30
2023-03-18T17:43:27.959Z,29.80
2023-03-18T17:46:11.237Z,29.70
2023-03-18T17:48:55.230Z,31.50
2023-03-18T17:51:38.885Z,31.40
2023-03-18T17:54:25.377Z,34.40
2023-03-18T17:57:14.744Z,36.00
2023-03-18T18:00:00.598Z,36.90
2023-03-18T18:02:44.744Z,35.30
2023-03-18T18:05:28.153Z,35.00
2023-03-18T18:08:19.241Z,36.30
2023-03-18T18:11:28.021Z,35.50
2023-03-18T18:14:10.877Z,33.70
2023-03-18T18:16:56.273Z,35.70
2023-03-18T18:19:39.369Z,33.40
2023-03-18T18:22:26.601Z,37.10
2023-03-18T18:25:17.781Z,35.00
2023-03-18T18:28:01.010Z,34.40
2023-03-18T18:30:45.376Z,34.30
2023-03-18T18:33:28.688Z,31.70
2023-03-18T18:36:13.367Z,32.80
2023-03-18T18:38:56.765Z,35.30
2023-03-18T18:41:40.626Z,34.60
2023-03-18T18:44:23.816Z,35.50
2023-03-18T18:47:17.907Z,34.70
2023-03-18T18:50:00.925Z,34.00
2023-03-18T18:52:46.770Z,34.70
2023-03-18T18:55:30.543Z,37.70
2023-03-18T18:58:18.842Z,37.60
2023-03-18T19:01:02.213Z,37.50
2023-03-18T19:03:45.484Z,40.70
2023-03-18T19:06:31.778Z,38.00
2023-03-18T19:09:20.664Z,41.20
2023-03-18T19:12:04.826Z,38.90
2023-03-18T19:14:48.038Z,39.70
2023-03-18T19:17:31.195Z,39.70
2023-03-18T19:20:28.360Z,39.60
2023-03-18T19:23:33.340Z,42.10
2023-03-18T19:26:18.164Z,37.80
2023-03-18T19:29:01.507Z,39.80
2023-03-18T19:31:44.848Z,40.00
2023-03-18T19:34:31.118Z,43.50
2023-03-18T19:37:18.353Z,43.70
2023-03-18T19:40:13.407Z,45.00
2023-03-18T19:42:56.443Z,46.10
2023-03-18T19:45:41.168Z,47.10
2023-03-18T19:48:28.793Z,47.80
2023-03-18T19:51:15.989Z,49.80
2023-03-18T19:53:59.423Z,54.10
2023-03-18T19:56:42.346Z,52.20
2023-03-18T19:59:31.634Z,51.80
2023-03-18T20:02:25.999Z,58.40
2023-03-18T20:05:20.884Z,55.80
2023-03-18T20:08:04.326Z,58.10
2023-03-18T20:10:47.395Z,60.30
2023-03-18T20:13:30.309Z,61.30
2023-03-18T20:16:15.687Z,60.70
2023-03-18T20:18:58.691Z,64.00
2023-03-18T20:24:29.603Z,64.00
2023-03-18T20:27:12.488Z,69.80
2023-03-18T20:32:38.385Z,67.00
2023-03-18T20:35:21.574Z,68.50
2023-03-18T20:38:12.762Z,67.80
2023-03-18T20:40:56.673Z,66.60
2023-03-18T20:43:39.665Z,65.60
2023-03-18T20:46:25.554Z,63.20
2023-03-18T20:49:09.552Z,64.40
2023-03-18T20:51:52.747Z,62.50
2023-03-18T20:54:35.720Z,62.20
2023-03-18T20:57:19.334Z,60.80
2023-03-18T21:00:02.628Z,65.10
2023-03-18T21:02:47.470Z,65.10
2023-03-18T21:05:30.760Z,74.30
2023-03-18T21:08:14.017Z,63.60
2023-03-18T21:11:01.555Z,68.80
2023-03-18T21:13:45.384Z,69.40
2023-03-18T21:16:28.402Z,66.30
2023-03-18T21:19:12.673Z,68.80
2023-03-18T21:21:56.362Z,68.40
2023-03-18T21:24:39.480Z,65.80
2023-03-18T21:27:26.685Z,65.70
2023-03-18T21:30:10.836Z,69.10
2023-03-18T21:32:53.873Z,64.40
2023-03-18T21:35:37.264Z,67.10
2023-03-18T21:38:20.729Z,62.20
2023-03-18T21:41:03.848Z,62.50
2023-03-18T21:43:48.356Z,64.80
2023-03-18T21:46:32.186Z,70.00
2023-03-18T21:49:16.261Z,66.20
2023-03-18T21:51:59.468Z,64.20
2023-03-18T21:54:42.445Z,64.10
2023-03-18T22:00:16.327Z,67.30
2023-03-18T22:02:59.328Z,69.30
2023-03-18T22:05:42.947Z,71.60
2023-03-18T22:08:26.089Z,72.90
2023-03-18T22:11:17.797Z,71.00
2023-03-18T22:14:00.965Z,72.60
2023-03-18T22:16:43.905Z,74.80
2023-03-18T22:19:27.568Z,77.90
2023-03-18T22:22:15.974Z,79.70
2023-03-18T22:24:59.095Z,86.70
2023-03-18T22:27:42.243Z,88.90
2023-03-18T22:30:27.680Z,81.40
2023-03-18T22:33:40.405Z,81.10
2023-03-18T22:36:25.501Z,80.00
2023-03-18T22:39:09.126Z,74.80
2023-03-18T22:41:52.116Z,78.90
2023-03-18T22:44:35.046Z,74.20
2023-03-18T22:50:06.203Z,70.60
2023-03-18T22:52:51.706Z,72.60
2023-03-18T22:55:39.623Z,70.00
2023-03-18T22:58:26.150Z,73.30
2023-03-18T23:01:21.094Z,73.30
2023-03-18T23:04:05.009Z,76.00
2023-03-18T23:06:49.056Z,75.70
2023-03-18T23:09:41.555Z,70.80
2023-03-18T23:12:32.661Z,68.00
2023-03-18T23:15:21.784Z,68.30
2023-03-18T23:18:06.703Z,71.70
2023-03-18T23:20:51.626Z,67.60
2023-03-18T23:23:34.631Z,70.50
2023-03-18T23:26:18.036Z,66.10
2023-03-18T23:29:01.754Z,64.00
2023-03-18T23:31:44.754Z,65.10
2023-03-18T23:34:27.886Z,72.10
2023-03-18T23:37:11.928Z,72.60
2023-03-18T23:39:56.088Z,70.20
2023-03-18T23:42:39.379Z,71.20
2023-03-18T23:45:24.719Z,73.90
2023-03-18T23:48:07.989Z,74.70
2023-03-18T23:50:51.204Z,79.70
2023-03-18T23:53:34.173Z,76.50
2023-03-18T23:56:17.381Z,72.20
2023-03-18T23:59:00.969Z,73.50
